Hauptseite
METAR-TAF:

METAR-TAF

Flughäfen :

Derry, Nordirland

Flughafen Derry

Breite: 55-03N, Länge: 007-09W, Höhe: 9 m

Beobachtung

Neuester Wetterbericht von vor 18 Stunden und 13 Minuten, um 15:50 UTC
Wind 10 kt aus Ost/Südost, variierte zwischen Ost und Südost
Temperatur 5°C
Luftfeuchtigkeit 70%
Luftdruck 1022 hPa
Sichtweite 10 km oder mehr
Durchbrochene Bewölkung in der Höhe von 3100 ft

METAR: EGAE 241550Z 11010KT 080V140 9999 BKN031 05/M00 Q1022

Zeit: 10:03 (10:03 UTC)

Prognose

Neuester Wetterbericht von vor 20 Stunden und 2 Minuten, um 14:01 UTC
Gültige Prognose vom 24 um 15 UTC bis 24 um 17 UTC
Wind 12 kt aus Süd/Südost
Sichtweite 10 km oder mehr
Durchbrochene Bewölkung in der Höhe von 2800 ft

TAF: EGAE 241401Z 2415/2417 16012KT 9999 BKN028

Wetterbeobachtungen und Prognosen von mehr als 4000 Flughäfen (METAR und TAF Bericht).

Die verfügbaren Stationen werden durch gelbe und rote Markierungen auf der Karte dargestellt.

Führen Sie die Maus auf sie, um den Namen der Station zu sehen.

Darauf klicken, um die Beobachtung von Wetterbeobachtungen und Prognosen zu sehen.

Um die Karte zu ändern : klicken Sie auf den grünen Tasten mit einem schwarzen Kreuz Zum Vergrößern, auf den grünen Button mit einem Gedankenstrich zu verkleinern, oder auf die grünen Pfeile für benachbarte Karten.


METAR-TAF: